sensor_id;sensor_type;location;lat;lon;timestamp;P1;durP1;ratioP1;P2;durP2;ratioP2
42600;SDS011;28229;48.856;9.088;2022-11-25T00:00:01;17.53;;;8.10;;
42600;SDS011;28229;48.856;9.088;2022-11-25T00:02:41;15.27;;;8.43;;
42600;SDS011;28229;48.856;9.088;2022-11-25T00:05:09;31.17;;;14.67;;
42600;SDS011;28229;48.856;9.088;2022-11-25T00:07:35;12.33;;;6.50;;
42600;SDS011;28229;48.856;9.088;2022-11-25T00:10:02;10.30;;;6.30;;
42600;SDS011;28229;48.856;9.088;2022-11-25T00:12:29;9.30;;;5.70;;
42600;SDS011;28229;48.856;9.088;2022-11-25T00:14:54;8.10;;;5.47;;
42600;SDS011;28229;48.856;9.088;2022-11-25T00:17:20;9.50;;;6.00;;
42600;SDS011;28229;48.856;9.088;2022-11-25T00:19:46;11.93;;;6.83;;
42600;SDS011;28229;48.856;9.088;2022-11-25T00:22:13;11.30;;;6.20;;
42600;SDS011;28229;48.856;9.088;2022-11-25T00:24:39;7.83;;;5.33;;
42600;SDS011;28229;48.856;9.088;2022-11-25T00:27:05;9.97;;;5.53;;
42600;SDS011;28229;48.856;9.088;2022-11-25T00:29:33;9.67;;;6.20;;
42600;SDS011;28229;48.856;9.088;2022-11-25T00:31:59;10.73;;;6.17;;
42600;SDS011;28229;48.856;9.088;2022-11-25T00:34:25;10.70;;;4.90;;
42600;SDS011;28229;48.856;9.088;2022-11-25T00:36:51;8.87;;;6.33;;
42600;SDS011;28229;48.856;9.088;2022-11-25T00:39:18;9.23;;;5.40;;
42600;SDS011;28229;48.856;9.088;2022-11-25T00:41:44;7.17;;;4.80;;
42600;SDS011;28229;48.856;9.088;2022-11-25T00:44:30;11.40;;;4.73;;
42600;SDS011;28229;48.856;9.088;2022-11-25T00:49:32;6.17;;;4.10;;
42600;SDS011;28229;48.856;9.088;2022-11-25T00:51:58;7.57;;;3.97;;
42600;SDS011;28229;48.856;9.088;2022-11-25T00:54:24;9.07;;;4.37;;
42600;SDS011;28229;48.856;9.088;2022-11-25T00:56:50;7.47;;;4.43;;
42600;SDS011;28229;48.856;9.088;2022-11-25T00:59:16;10.33;;;5.37;;
42600;SDS011;28229;48.856;9.088;2022-11-25T01:01:42;7.63;;;4.00;;
42600;SDS011;28229;48.856;9.088;2022-11-25T01:04:08;7.87;;;4.27;;
42600;SDS011;28229;48.856;9.088;2022-11-25T01:06:35;7.53;;;4.13;;
42600;SDS011;28229;48.856;9.088;2022-11-25T01:09:03;8.37;;;4.07;;
42600;SDS011;28229;48.856;9.088;2022-11-25T01:11:32;7.17;;;4.07;;
42600;SDS011;28229;48.856;9.088;2022-11-25T01:13:59;8.43;;;4.27;;
42600;SDS011;28229;48.856;9.088;2022-11-25T01:16:25;11.07;;;5.67;;
42600;SDS011;28229;48.856;9.088;2022-11-25T01:19:05;15.30;;;6.77;;
42600;SDS011;28229;48.856;9.088;2022-11-25T01:21:32;10.30;;;5.27;;
42600;SDS011;28229;48.856;9.088;2022-11-25T01:23:59;11.57;;;5.07;;
42600;SDS011;28229;48.856;9.088;2022-11-25T01:26:26;11.03;;;5.10;;
42600;SDS011;28229;48.856;9.088;2022-11-25T01:28:57;11.57;;;5.20;;
42600;SDS011;28229;48.856;9.088;2022-11-25T01:31:25;11.37;;;5.43;;
42600;SDS011;28229;48.856;9.088;2022-11-25T01:33:54;10.57;;;4.93;;
42600;SDS011;28229;48.856;9.088;2022-11-25T01:36:22;11.03;;;5.00;;
42600;SDS011;28229;48.856;9.088;2022-11-25T01:38:49;7.90;;;4.73;;
42600;SDS011;28229;48.856;9.088;2022-11-25T01:41:17;10.37;;;5.13;;
42600;SDS011;28229;48.856;9.088;2022-11-25T01:44:00;8.90;;;4.47;;
42600;SDS011;28229;48.856;9.088;2022-11-25T01:46:34;11.40;;;5.27;;
42600;SDS011;28229;48.856;9.088;2022-11-25T01:49:04;12.13;;;5.03;;
42600;SDS011;28229;48.856;9.088;2022-11-25T01:51:39;11.67;;;4.83;;
42600;SDS011;28229;48.856;9.088;2022-11-25T01:54:09;8.73;;;4.77;;
42600;SDS011;28229;48.856;9.088;2022-11-25T01:56:40;9.30;;;4.60;;
42600;SDS011;28229;48.856;9.088;2022-11-25T01:59:13;8.00;;;4.50;;
42600;SDS011;28229;48.856;9.088;2022-11-25T02:01:40;7.60;;;4.60;;
42600;SDS011;28229;48.856;9.088;2022-11-25T02:04:06;7.03;;;4.80;;
42600;SDS011;28229;48.856;9.088;2022-11-25T02:06:41;6.97;;;4.60;;
42600;SDS011;28229;48.856;9.088;2022-11-25T02:09:13;10.10;;;4.93;;
42600;SDS011;28229;48.856;9.088;2022-11-25T02:11:42;10.43;;;4.73;;
42600;SDS011;28229;48.856;9.088;2022-11-25T02:14:11;10.90;;;4.90;;
42600;SDS011;28229;48.856;9.088;2022-11-25T02:16:38;9.83;;;5.20;;
42600;SDS011;28229;48.856;9.088;2022-11-25T02:19:04;9.67;;;4.73;;
42600;SDS011;28229;48.856;9.088;2022-11-25T02:21:39;9.03;;;5.00;;
42600;SDS011;28229;48.856;9.088;2022-11-25T02:24:15;7.60;;;5.20;;
42600;SDS011;28229;48.856;9.088;2022-11-25T02:26:47;11.17;;;6.40;;
42600;SDS011;28229;48.856;9.088;2022-11-25T02:29:13;8.27;;;5.20;;
42600;SDS011;28229;48.856;9.088;2022-11-25T02:31:39;7.03;;;5.00;;
42600;SDS011;28229;48.856;9.088;2022-11-25T02:34:04;8.37;;;5.33;;
42600;SDS011;28229;48.856;9.088;2022-11-25T02:36:33;6.93;;;4.80;;
42600;SDS011;28229;48.856;9.088;2022-11-25T02:38:59;9.53;;;4.90;;
42600;SDS011;28229;48.856;9.088;2022-11-25T02:41:34;6.80;;;4.77;;
42600;SDS011;28229;48.856;9.088;2022-11-25T02:44:05;10.33;;;4.80;;
42600;SDS011;28229;48.856;9.088;2022-11-25T02:46:32;9.33;;;4.50;;
42600;SDS011;28229;48.856;9.088;2022-11-25T02:49:01;7.70;;;4.47;;
42600;SDS011;28229;48.856;9.088;2022-11-25T02:51:28;6.97;;;4.47;;
42600;SDS011;28229;48.856;9.088;2022-11-25T02:53:57;9.30;;;5.30;;
42600;SDS011;28229;48.856;9.088;2022-11-25T02:56:27;9.30;;;5.30;;
42600;SDS011;28229;48.856;9.088;2022-11-25T02:58:57;9.03;;;5.30;;
42600;SDS011;28229;48.856;9.088;2022-11-25T03:01:25;10.27;;;5.53;;
42600;SDS011;28229;48.856;9.088;2022-11-25T03:03:52;11.83;;;5.97;;
42600;SDS011;28229;48.856;9.088;2022-11-25T03:06:18;8.83;;;5.40;;
42600;SDS011;28229;48.856;9.088;2022-11-25T03:08:43;9.80;;;5.27;;
42600;SDS011;28229;48.856;9.088;2022-11-25T03:11:11;9.27;;;4.80;;
42600;SDS011;28229;48.856;9.088;2022-11-25T03:13:37;6.63;;;4.67;;
42600;SDS011;28229;48.856;9.088;2022-11-25T03:16:03;8.43;;;5.10;;
42600;SDS011;28229;48.856;9.088;2022-11-25T03:18:30;12.10;;;5.97;;
42600;SDS011;28229;48.856;9.088;2022-11-25T03:20:55;9.77;;;5.60;;
42600;SDS011;28229;48.856;9.088;2022-11-25T03:23:23;9.67;;;5.40;;
42600;SDS011;28229;48.856;9.088;2022-11-25T03:25:52;7.90;;;5.30;;
42600;SDS011;28229;48.856;9.088;2022-11-25T03:28:18;9.37;;;5.40;;
42600;SDS011;28229;48.856;9.088;2022-11-25T03:30:44;8.50;;;5.30;;
42600;SDS011;28229;48.856;9.088;2022-11-25T03:33:11;8.70;;;5.20;;
42600;SDS011;28229;48.856;9.088;2022-11-25T03:35:37;7.47;;;4.63;;
42600;SDS011;28229;48.856;9.088;2022-11-25T03:38:03;11.27;;;5.10;;
42600;SDS011;28229;48.856;9.088;2022-11-25T03:40:34;6.53;;;4.90;;
42600;SDS011;28229;48.856;9.088;2022-11-25T03:43:00;7.90;;;4.50;;
42600;SDS011;28229;48.856;9.088;2022-11-25T03:45:26;6.77;;;4.50;;
42600;SDS011;28229;48.856;9.088;2022-11-25T03:47:53;7.07;;;4.23;;
42600;SDS011;28229;48.856;9.088;2022-11-25T03:50:19;9.93;;;4.90;;
42600;SDS011;28229;48.856;9.088;2022-11-25T03:52:47;8.73;;;4.90;;
42600;SDS011;28229;48.856;9.088;2022-11-25T03:55:13;7.47;;;4.73;;
42600;SDS011;28229;48.856;9.088;2022-11-25T03:57:42;6.80;;;4.73;;
42600;SDS011;28229;48.856;9.088;2022-11-25T04:00:09;7.20;;;4.57;;
42600;SDS011;28229;48.856;9.088;2022-11-25T04:02:50;9.30;;;4.57;;
42600;SDS011;28229;48.856;9.088;2022-11-25T04:05:18;6.93;;;4.60;;
42600;SDS011;28229;48.856;9.088;2022-11-25T04:07:44;6.53;;;3.90;;
42600;SDS011;28229;48.856;9.088;2022-11-25T04:10:10;6.47;;;4.23;;
42600;SDS011;28229;48.856;9.088;2022-11-25T04:12:36;7.60;;;4.43;;
42600;SDS011;28229;48.856;9.088;2022-11-25T04:15:15;6.50;;;4.83;;
42600;SDS011;28229;48.856;9.088;2022-11-25T04:17:41;9.83;;;5.83;;
42600;SDS011;28229;48.856;9.088;2022-11-25T04:20:08;8.77;;;5.47;;
42600;SDS011;28229;48.856;9.088;2022-11-25T04:22:37;10.50;;;5.90;;
42600;SDS011;28229;48.856;9.088;2022-11-25T04:25:04;8.80;;;5.43;;
42600;SDS011;28229;48.856;9.088;2022-11-25T04:27:31;9.17;;;5.10;;
42600;SDS011;28229;48.856;9.088;2022-11-25T04:29:58;8.40;;;5.53;;
42600;SDS011;28229;48.856;9.088;2022-11-25T04:32:24;9.70;;;5.33;;
42600;SDS011;28229;48.856;9.088;2022-11-25T04:34:50;7.43;;;5.07;;
42600;SDS011;28229;48.856;9.088;2022-11-25T04:37:16;10.60;;;6.20;;
42600;SDS011;28229;48.856;9.088;2022-11-25T04:39:43;12.73;;;6.00;;
42600;SDS011;28229;48.856;9.088;2022-11-25T04:42:16;9.90;;;6.90;;
42600;SDS011;28229;48.856;9.088;2022-11-25T04:45:06;12.97;;;6.87;;
42600;SDS011;28229;48.856;9.088;2022-11-25T04:47:33;11.87;;;7.07;;
42600;SDS011;28229;48.856;9.088;2022-11-25T04:49:59;8.83;;;6.20;;
42600;SDS011;28229;48.856;9.088;2022-11-25T04:52:25;9.37;;;6.00;;
42600;SDS011;28229;48.856;9.088;2022-11-25T04:54:51;6.70;;;5.60;;
42600;SDS011;28229;48.856;9.088;2022-11-25T04:57:18;7.40;;;4.77;;
42600;SDS011;28229;48.856;9.088;2022-11-25T04:59:44;9.07;;;4.63;;
42600;SDS011;28229;48.856;9.088;2022-11-25T05:02:21;6.47;;;4.70;;
42600;SDS011;28229;48.856;9.088;2022-11-25T05:05:08;7.40;;;4.97;;
42600;SDS011;28229;48.856;9.088;2022-11-25T05:07:34;7.00;;;4.87;;
42600;SDS011;28229;48.856;9.088;2022-11-25T05:10:00;6.50;;;4.67;;
42600;SDS011;28229;48.856;9.088;2022-11-25T05:12:35;6.80;;;4.50;;
42600;SDS011;28229;48.856;9.088;2022-11-25T05:15:06;7.50;;;4.90;;
42600;SDS011;28229;48.856;9.088;2022-11-25T05:17:35;8.80;;;5.23;;
42600;SDS011;28229;48.856;9.088;2022-11-25T05:20:02;7.23;;;5.00;;
42600;SDS011;28229;48.856;9.088;2022-11-25T05:22:31;7.53;;;5.20;;
42600;SDS011;28229;48.856;9.088;2022-11-25T05:24:58;7.40;;;5.00;;
42600;SDS011;28229;48.856;9.088;2022-11-25T05:27:25;7.37;;;5.30;;
42600;SDS011;28229;48.856;9.088;2022-11-25T05:29:51;10.97;;;5.30;;
42600;SDS011;28229;48.856;9.088;2022-11-25T05:32:17;7.13;;;4.80;;
42600;SDS011;28229;48.856;9.088;2022-11-25T05:34:43;6.83;;;4.70;;
42600;SDS011;28229;48.856;9.088;2022-11-25T05:37:11;7.37;;;5.00;;
42600;SDS011;28229;48.856;9.088;2022-11-25T05:39:40;8.43;;;5.00;;
42600;SDS011;28229;48.856;9.088;2022-11-25T05:42:32;6.07;;;4.73;;
42600;SDS011;28229;48.856;9.088;2022-11-25T05:45:01;9.63;;;4.70;;
42600;SDS011;28229;48.856;9.088;2022-11-25T05:47:29;8.07;;;5.10;;
42600;SDS011;28229;48.856;9.088;2022-11-25T05:49:55;7.90;;;4.50;;
42600;SDS011;28229;48.856;9.088;2022-11-25T05:52:22;9.33;;;4.73;;
42600;SDS011;28229;48.856;9.088;2022-11-25T05:54:53;9.30;;;4.83;;
42600;SDS011;28229;48.856;9.088;2022-11-25T05:57:20;8.73;;;4.63;;
42600;SDS011;28229;48.856;9.088;2022-11-25T05:59:53;7.20;;;5.30;;
42600;SDS011;28229;48.856;9.088;2022-11-25T06:02:27;9.97;;;5.20;;
42600;SDS011;28229;48.856;9.088;2022-11-25T06:04:54;15.67;;;8.40;;
42600;SDS011;28229;48.856;9.088;2022-11-25T06:07:20;24.67;;;14.53;;
42600;SDS011;28229;48.856;9.088;2022-11-25T06:09:48;25.80;;;12.87;;
42600;SDS011;28229;48.856;9.088;2022-11-25T06:12:15;21.27;;;11.20;;
42600;SDS011;28229;48.856;9.088;2022-11-25T06:14:46;21.90;;;10.57;;
42600;SDS011;28229;48.856;9.088;2022-11-25T06:17:13;16.03;;;8.00;;
42600;SDS011;28229;48.856;9.088;2022-11-25T06:19:54;9.83;;;5.80;;
42600;SDS011;28229;48.856;9.088;2022-11-25T06:22:20;9.90;;;4.83;;
42600;SDS011;28229;48.856;9.088;2022-11-25T06:24:45;8.50;;;4.97;;
42600;SDS011;28229;48.856;9.088;2022-11-25T06:27:12;9.90;;;4.80;;
42600;SDS011;28229;48.856;9.088;2022-11-25T06:29:39;5.20;;;3.90;;
42600;SDS011;28229;48.856;9.088;2022-11-25T06:32:05;8.30;;;4.50;;
42600;SDS011;28229;48.856;9.088;2022-11-25T06:34:49;9.73;;;4.90;;
42600;SDS011;28229;48.856;9.088;2022-11-25T06:37:28;12.63;;;6.53;;
42600;SDS011;28229;48.856;9.088;2022-11-25T06:39:54;8.60;;;6.47;;
42600;SDS011;28229;48.856;9.088;2022-11-25T06:42:20;8.57;;;5.53;;
42600;SDS011;28229;48.856;9.088;2022-11-25T06:44:46;8.37;;;5.27;;
42600;SDS011;28229;48.856;9.088;2022-11-25T06:47:12;8.93;;;5.27;;
42600;SDS011;28229;48.856;9.088;2022-11-25T06:49:38;7.93;;;4.87;;
42600;SDS011;28229;48.856;9.088;2022-11-25T06:52:04;8.77;;;5.07;;
42600;SDS011;28229;48.856;9.088;2022-11-25T06:54:30;9.00;;;5.03;;
42600;SDS011;28229;48.856;9.088;2022-11-25T06:56:56;7.43;;;5.07;;
42600;SDS011;28229;48.856;9.088;2022-11-25T06:59:22;7.73;;;4.23;;
42600;SDS011;28229;48.856;9.088;2022-11-25T07:01:47;8.57;;;5.27;;
42600;SDS011;28229;48.856;9.088;2022-11-25T07:04:13;10.87;;;5.57;;
42600;SDS011;28229;48.856;9.088;2022-11-25T07:06:39;8.03;;;5.30;;
42600;SDS011;28229;48.856;9.088;2022-11-25T07:09:05;10.93;;;5.30;;
42600;SDS011;28229;48.856;9.088;2022-11-25T07:11:32;8.30;;;5.43;;
42600;SDS011;28229;48.856;9.088;2022-11-25T07:14:00;13.20;;;5.53;;
42600;SDS011;28229;48.856;9.088;2022-11-25T07:16:28;10.83;;;5.33;;
42600;SDS011;28229;48.856;9.088;2022-11-25T07:18:54;9.77;;;4.63;;
42600;SDS011;28229;48.856;9.088;2022-11-25T07:21:21;8.23;;;5.50;;
42600;SDS011;28229;48.856;9.088;2022-11-25T07:23:49;9.57;;;5.40;;
42600;SDS011;28229;48.856;9.088;2022-11-25T07:26:18;11.70;;;5.50;;
42600;SDS011;28229;48.856;9.088;2022-11-25T07:28:49;9.23;;;5.70;;
42600;SDS011;28229;48.856;9.088;2022-11-25T07:31:16;9.80;;;5.77;;
42600;SDS011;28229;48.856;9.088;2022-11-25T07:33:44;7.30;;;5.50;;
42600;SDS011;28229;48.856;9.088;2022-11-25T07:36:10;9.23;;;6.60;;
42600;SDS011;28229;48.856;9.088;2022-11-25T07:38:38;12.03;;;6.73;;
42600;SDS011;28229;48.856;9.088;2022-11-25T07:43:37;11.30;;;6.80;;
42600;SDS011;28229;48.856;9.088;2022-11-25T07:48:38;10.03;;;4.80;;
42600;SDS011;28229;48.856;9.088;2022-11-25T07:51:05;7.50;;;5.27;;
42600;SDS011;28229;48.856;9.088;2022-11-25T07:53:44;9.10;;;6.47;;
42600;SDS011;28229;48.856;9.088;2022-11-25T07:56:11;9.20;;;6.07;;
42600;SDS011;28229;48.856;9.088;2022-11-25T07:58:37;10.17;;;5.63;;
42600;SDS011;28229;48.856;9.088;2022-11-25T08:01:03;6.80;;;5.03;;
42600;SDS011;28229;48.856;9.088;2022-11-25T08:03:33;7.20;;;3.53;;
42600;SDS011;28229;48.856;9.088;2022-11-25T08:06:08;4.77;;;3.50;;
42600;SDS011;28229;48.856;9.088;2022-11-25T08:08:36;5.47;;;4.00;;
42600;SDS011;28229;48.856;9.088;2022-11-25T08:11:07;12.00;;;8.77;;
42600;SDS011;28229;48.856;9.088;2022-11-25T08:13:38;57.40;;;35.30;;
42600;SDS011;28229;48.856;9.088;2022-11-25T08:16:04;59.63;;;37.53;;
42600;SDS011;28229;48.856;9.088;2022-11-25T08:18:31;63.83;;;36.00;;
42600;SDS011;28229;48.856;9.088;2022-11-25T08:21:00;64.80;;;36.07;;
42600;SDS011;28229;48.856;9.088;2022-11-25T08:23:30;29.87;;;17.57;;
42600;SDS011;28229;48.856;9.088;2022-11-25T08:26:09;23.63;;;14.70;;
42600;SDS011;28229;48.856;9.088;2022-11-25T08:28:37;15.00;;;12.07;;
42600;SDS011;28229;48.856;9.088;2022-11-25T08:31:06;7.80;;;6.47;;
42600;SDS011;28229;48.856;9.088;2022-11-25T08:33:37;8.47;;;5.33;;
42600;SDS011;28229;48.856;9.088;2022-11-25T08:36:05;6.10;;;4.27;;
42600;SDS011;28229;48.856;9.088;2022-11-25T08:38:32;11.20;;;6.53;;
42600;SDS011;28229;48.856;9.088;2022-11-25T08:40:58;13.17;;;7.93;;
42600;SDS011;28229;48.856;9.088;2022-11-25T08:43:24;11.07;;;6.10;;
42600;SDS011;28229;48.856;9.088;2022-11-25T08:45:50;9.27;;;5.00;;
42600;SDS011;28229;48.856;9.088;2022-11-25T08:48:17;9.03;;;5.00;;
42600;SDS011;28229;48.856;9.088;2022-11-25T08:50:48;5.47;;;4.20;;
42600;SDS011;28229;48.856;9.088;2022-11-25T08:53:16;6.23;;;3.60;;
42600;SDS011;28229;48.856;9.088;2022-11-25T08:55:43;4.37;;;3.37;;
42600;SDS011;28229;48.856;9.088;2022-11-25T08:58:09;4.60;;;3.40;;
42600;SDS011;28229;48.856;9.088;2022-11-25T09:00:41;6.67;;;3.87;;
42600;SDS011;28229;48.856;9.088;2022-11-25T09:03:07;5.83;;;4.10;;
42600;SDS011;28229;48.856;9.088;2022-11-25T09:05:34;4.93;;;3.57;;
42600;SDS011;28229;48.856;9.088;2022-11-25T09:08:04;6.70;;;3.47;;
42600;SDS011;28229;48.856;9.088;2022-11-25T09:10:31;5.77;;;3.57;;
42600;SDS011;28229;48.856;9.088;2022-11-25T09:12:58;5.70;;;2.97;;
42600;SDS011;28229;48.856;9.088;2022-11-25T09:15:24;7.03;;;3.60;;
42600;SDS011;28229;48.856;9.088;2022-11-25T09:17:57;4.07;;;3.30;;
42600;SDS011;28229;48.856;9.088;2022-11-25T09:20:25;4.97;;;3.40;;
42600;SDS011;28229;48.856;9.088;2022-11-25T09:22:52;6.00;;;3.40;;
42600;SDS011;28229;48.856;9.088;2022-11-25T09:25:18;6.23;;;3.60;;
42600;SDS011;28229;48.856;9.088;2022-11-25T09:27:45;5.93;;;3.27;;
42600;SDS011;28229;48.856;9.088;2022-11-25T09:30:11;5.90;;;3.23;;
42600;SDS011;28229;48.856;9.088;2022-11-25T09:32:37;5.17;;;3.73;;
42600;SDS011;28229;48.856;9.088;2022-11-25T09:35:03;5.90;;;3.90;;
42600;SDS011;28229;48.856;9.088;2022-11-25T09:37:29;5.63;;;3.70;;
42600;SDS011;28229;48.856;9.088;2022-11-25T09:39:55;6.93;;;3.80;;
42600;SDS011;28229;48.856;9.088;2022-11-25T09:42:39;9.83;;;5.20;;
42600;SDS011;28229;48.856;9.088;2022-11-25T09:45:55;6.80;;;3.50;;
42600;SDS011;28229;48.856;9.088;2022-11-25T09:51:22;7.97;;;4.27;;
42600;SDS011;28229;48.856;9.088;2022-11-25T09:56:52;6.60;;;4.70;;
42600;SDS011;28229;48.856;9.088;2022-11-25T09:59:28;6.20;;;3.60;;
42600;SDS011;28229;48.856;9.088;2022-11-25T10:01:59;6.03;;;4.00;;
42600;SDS011;28229;48.856;9.088;2022-11-25T10:04:31;6.90;;;4.37;;
42600;SDS011;28229;48.856;9.088;2022-11-25T10:07:02;3.67;;;3.37;;
42600;SDS011;28229;48.856;9.088;2022-11-25T10:09:31;5.10;;;3.30;;
42600;SDS011;28229;48.856;9.088;2022-11-25T10:12:02;6.20;;;3.60;;
42600;SDS011;28229;48.856;9.088;2022-11-25T10:24:59;5.60;;;3.30;;
42600;SDS011;28229;48.856;9.088;2022-11-25T10:30:19;4.17;;;3.00;;
42600;SDS011;28229;48.856;9.088;2022-11-25T10:33:04;6.87;;;3.20;;
42600;SDS011;28229;48.856;9.088;2022-11-25T10:35:52;5.30;;;3.27;;
42600;SDS011;28229;48.856;9.088;2022-11-25T10:38:25;4.67;;;2.83;;
42600;SDS011;28229;48.856;9.088;2022-11-25T10:40:56;3.87;;;3.13;;
42600;SDS011;28229;48.856;9.088;2022-11-25T10:43:23;4.90;;;3.40;;
42600;SDS011;28229;48.856;9.088;2022-11-25T10:46:35;6.23;;;3.10;;
42600;SDS011;28229;48.856;9.088;2022-11-25T10:51:46;5.10;;;2.67;;
42600;SDS011;28229;48.856;9.088;2022-11-25T10:54:20;8.87;;;3.60;;
42600;SDS011;28229;48.856;9.088;2022-11-25T10:56:51;8.23;;;3.13;;
42600;SDS011;28229;48.856;9.088;2022-11-25T11:02:11;4.73;;;3.00;;
42600;SDS011;28229;48.856;9.088;2022-11-25T11:04:49;5.20;;;2.57;;
42600;SDS011;28229;48.856;9.088;2022-11-25T11:07:15;6.30;;;3.47;;
42600;SDS011;28229;48.856;9.088;2022-11-25T11:09:42;3.53;;;2.30;;
42600;SDS011;28229;48.856;9.088;2022-11-25T11:12:24;5.80;;;2.43;;
42600;SDS011;28229;48.856;9.088;2022-11-25T11:14:52;5.40;;;2.17;;
42600;SDS011;28229;48.856;9.088;2022-11-25T11:17:29;5.50;;;2.37;;
42600;SDS011;28229;48.856;9.088;2022-11-25T11:20:12;4.87;;;3.10;;
42600;SDS011;28229;48.856;9.088;2022-11-25T11:22:45;9.57;;;3.37;;
42600;SDS011;28229;48.856;9.088;2022-11-25T11:27:49;7.27;;;4.00;;
42600;SDS011;28229;48.856;9.088;2022-11-25T11:30:23;5.47;;;4.07;;
42600;SDS011;28229;48.856;9.088;2022-11-25T11:36:02;6.43;;;4.40;;
42600;SDS011;28229;48.856;9.088;2022-11-25T11:41:48;5.23;;;4.00;;
42600;SDS011;28229;48.856;9.088;2022-11-25T11:44:19;6.47;;;3.90;;
42600;SDS011;28229;48.856;9.088;2022-11-25T11:46:57;5.00;;;3.83;;
42600;SDS011;28229;48.856;9.088;2022-11-25T11:49:46;5.33;;;3.80;;
42600;SDS011;28229;48.856;9.088;2022-11-25T12:04:27;8.53;;;5.13;;
42600;SDS011;28229;48.856;9.088;2022-11-25T12:06:59;6.40;;;4.80;;
42600;SDS011;28229;48.856;9.088;2022-11-25T12:09:31;7.50;;;3.80;;
42600;SDS011;28229;48.856;9.088;2022-11-25T12:12:02;5.17;;;3.77;;
42600;SDS011;28229;48.856;9.088;2022-11-25T12:14:34;4.43;;;3.60;;
42600;SDS011;28229;48.856;9.088;2022-11-25T12:17:19;7.57;;;4.30;;
42600;SDS011;28229;48.856;9.088;2022-11-25T12:19:54;8.20;;;5.20;;
42600;SDS011;28229;48.856;9.088;2022-11-25T12:22:31;6.30;;;4.30;;
42600;SDS011;28229;48.856;9.088;2022-11-25T12:27:43;9.43;;;6.13;;
42600;SDS011;28229;48.856;9.088;2022-11-25T12:30:12;7.93;;;5.80;;
42600;SDS011;28229;48.856;9.088;2022-11-25T12:38:20;7.60;;;5.50;;
42600;SDS011;28229;48.856;9.088;2022-11-25T12:40:56;8.50;;;5.90;;
42600;SDS011;28229;48.856;9.088;2022-11-25T12:45:59;8.50;;;6.00;;
42600;SDS011;28229;48.856;9.088;2022-11-25T12:48:35;9.07;;;5.73;;
42600;SDS011;28229;48.856;9.088;2022-11-25T12:51:16;10.53;;;5.57;;
42600;SDS011;28229;48.856;9.088;2022-11-25T13:08:02;14.90;;;8.93;;
42600;SDS011;28229;48.856;9.088;2022-11-25T13:13:46;8.40;;;5.57;;
42600;SDS011;28229;48.856;9.088;2022-11-25T13:16:17;7.77;;;5.60;;
42600;SDS011;28229;48.856;9.088;2022-11-25T13:18:44;9.70;;;6.00;;
42600;SDS011;28229;48.856;9.088;2022-11-25T13:21:14;8.53;;;4.70;;
42600;SDS011;28229;48.856;9.088;2022-11-25T13:23:45;8.30;;;5.27;;
42600;SDS011;28229;48.856;9.088;2022-11-25T13:31:59;5.80;;;3.80;;
42600;SDS011;28229;48.856;9.088;2022-11-25T13:34:28;6.70;;;3.00;;
42600;SDS011;28229;48.856;9.088;2022-11-25T13:36:56;4.83;;;2.70;;
42600;SDS011;28229;48.856;9.088;2022-11-25T13:39:33;5.50;;;2.67;;
42600;SDS011;28229;48.856;9.088;2022-11-25T13:42:02;4.90;;;2.13;;
42600;SDS011;28229;48.856;9.088;2022-11-25T13:44:29;6.30;;;2.37;;
42600;SDS011;28229;48.856;9.088;2022-11-25T13:49:53;7.07;;;2.27;;
42600;SDS011;28229;48.856;9.088;2022-11-25T13:52:46;5.20;;;2.30;;
42600;SDS011;28229;48.856;9.088;2022-11-25T13:57:43;5.87;;;2.00;;
42600;SDS011;28229;48.856;9.088;2022-11-25T14:02:44;4.50;;;2.10;;
42600;SDS011;28229;48.856;9.088;2022-11-25T14:10:48;7.37;;;2.33;;
42600;SDS011;28229;48.856;9.088;2022-11-25T14:13:43;4.30;;;1.90;;
42600;SDS011;28229;48.856;9.088;2022-11-25T14:18:55;5.30;;;2.00;;
42600;SDS011;28229;48.856;9.088;2022-11-25T14:24:27;7.47;;;2.30;;
42600;SDS011;28229;48.856;9.088;2022-11-25T14:27:12;7.20;;;1.77;;
42600;SDS011;28229;48.856;9.088;2022-11-25T14:29:42;5.63;;;2.00;;
42600;SDS011;28229;48.856;9.088;2022-11-25T14:32:21;5.67;;;1.97;;
42600;SDS011;28229;48.856;9.088;2022-11-25T14:34:58;6.17;;;2.07;;
42600;SDS011;28229;48.856;9.088;2022-11-25T14:37:43;6.77;;;2.30;;
42600;SDS011;28229;48.856;9.088;2022-11-25T14:40:17;6.07;;;2.70;;
42600;SDS011;28229;48.856;9.088;2022-11-25T14:42:47;4.30;;;2.20;;
42600;SDS011;28229;48.856;9.088;2022-11-25T14:45:20;3.90;;;1.70;;
42600;SDS011;28229;48.856;9.088;2022-11-25T14:47:48;6.20;;;2.20;;
42600;SDS011;28229;48.856;9.088;2022-11-25T14:50:14;5.03;;;1.90;;
42600;SDS011;28229;48.856;9.088;2022-11-25T14:52:41;4.63;;;1.70;;
42600;SDS011;28229;48.856;9.088;2022-11-25T14:55:09;5.57;;;2.03;;
42600;SDS011;28229;48.856;9.088;2022-11-25T14:57:36;4.43;;;1.90;;
42600;SDS011;28229;48.856;9.088;2022-11-25T15:00:07;2.93;;;1.80;;
42600;SDS011;28229;48.856;9.088;2022-11-25T15:02:41;5.53;;;1.70;;
42600;SDS011;28229;48.856;9.088;2022-11-25T15:05:18;3.87;;;1.77;;
42600;SDS011;28229;48.856;9.088;2022-11-25T15:07:56;6.27;;;2.07;;
42600;SDS011;28229;48.856;9.088;2022-11-25T15:10:30;4.30;;;1.80;;
42600;SDS011;28229;48.856;9.088;2022-11-25T15:16:18;5.07;;;1.80;;
42600;SDS011;28229;48.856;9.088;2022-11-25T15:18:52;6.13;;;2.17;;
42600;SDS011;28229;48.856;9.088;2022-11-25T15:21:21;8.33;;;2.30;;
42600;SDS011;28229;48.856;9.088;2022-11-25T15:24:05;5.93;;;1.87;;
42600;SDS011;28229;48.856;9.088;2022-11-25T15:26:33;8.13;;;2.17;;
42600;SDS011;28229;48.856;9.088;2022-11-25T15:29:02;6.30;;;2.10;;
42600;SDS011;28229;48.856;9.088;2022-11-25T15:31:36;6.27;;;1.90;;
42600;SDS011;28229;48.856;9.088;2022-11-25T15:34:06;4.53;;;1.73;;
42600;SDS011;28229;48.856;9.088;2022-11-25T15:36:36;5.47;;;2.07;;
42600;SDS011;28229;48.856;9.088;2022-11-25T15:41:51;6.70;;;1.80;;
42600;SDS011;28229;48.856;9.088;2022-11-25T15:44:27;5.67;;;1.90;;
42600;SDS011;28229;48.856;9.088;2022-11-25T15:49:31;5.00;;;2.00;;
42600;SDS011;28229;48.856;9.088;2022-11-25T15:54:43;9.30;;;3.00;;
42600;SDS011;28229;48.856;9.088;2022-11-25T15:57:30;6.77;;;3.17;;
42600;SDS011;28229;48.856;9.088;2022-11-25T16:07:38;5.90;;;2.37;;
42600;SDS011;28229;48.856;9.088;2022-11-25T16:10:32;10.50;;;3.07;;
42600;SDS011;28229;48.856;9.088;2022-11-25T16:18:17;7.03;;;2.50;;
42600;SDS011;28229;48.856;9.088;2022-11-25T16:20:46;4.97;;;2.60;;
42600;SDS011;28229;48.856;9.088;2022-11-25T16:23:27;9.57;;;3.03;;
42600;SDS011;28229;48.856;9.088;2022-11-25T16:25:59;7.10;;;2.53;;
42600;SDS011;28229;48.856;9.088;2022-11-25T16:28:31;5.23;;;2.40;;
42600;SDS011;28229;48.856;9.088;2022-11-25T16:30:57;8.03;;;2.70;;
42600;SDS011;28229;48.856;9.088;2022-11-25T16:33:24;8.70;;;2.73;;
42600;SDS011;28229;48.856;9.088;2022-11-25T16:35:50;9.07;;;2.67;;
42600;SDS011;28229;48.856;9.088;2022-11-25T16:38:16;9.67;;;2.53;;
42600;SDS011;28229;48.856;9.088;2022-11-25T16:40:42;8.33;;;2.63;;
42600;SDS011;28229;48.856;9.088;2022-11-25T16:43:21;9.97;;;2.80;;
42600;SDS011;28229;48.856;9.088;2022-11-25T16:45:49;5.20;;;2.33;;
42600;SDS011;28229;48.856;9.088;2022-11-25T16:48:18;8.10;;;2.73;;
42600;SDS011;28229;48.856;9.088;2022-11-25T16:50:45;5.00;;;2.43;;
42600;SDS011;28229;48.856;9.088;2022-11-25T16:53:12;11.93;;;3.13;;
42600;SDS011;28229;48.856;9.088;2022-11-25T16:55:39;7.80;;;3.80;;
42600;SDS011;28229;48.856;9.088;2022-11-25T16:58:14;8.40;;;4.40;;
42600;SDS011;28229;48.856;9.088;2022-11-25T17:00:50;9.03;;;4.23;;
42600;SDS011;28229;48.856;9.088;2022-11-25T17:03:18;8.50;;;4.40;;
42600;SDS011;28229;48.856;9.088;2022-11-25T17:05:45;7.03;;;4.30;;
42600;SDS011;28229;48.856;9.088;2022-11-25T17:08:19;4.87;;;3.43;;
42600;SDS011;28229;48.856;9.088;2022-11-25T17:10:46;7.97;;;3.43;;
42600;SDS011;28229;48.856;9.088;2022-11-25T17:13:17;7.93;;;3.70;;